Time;durP1;ratioP1;P1;durP2;ratioP2;P2;SDS_P1;SDS_P2;PMS_P1;PMS_P2;Temp;Humidity;BMP_temperature;BMP_pressure;BME280_temperature;BME280_humidity;BME280_pressure;Samples;Min_cycle;Max_cycle;Signal;HPM_P1;HPM_P2
2021/09/27 00:01:16;;;;;;;10.90;9.83;;;;;;;20.43;72.81;100335.91;5093868;28;20549;-70
2021/09/27 00:03:43;;;;;;;10.97;10.00;;;;;;;20.43;72.44;100338.63;5115732;28;20477;-70
2021/09/27 00:06:10;;;;;;;10.93;9.90;;;;;;;20.49;72.35;100346.78;5112073;28;20485;-70
2021/09/27 00:08:38;;;;;;;12.73;11.30;;;;;;;20.49;71.96;100346.78;5102310;28;20534;-71
2021/09/27 00:11:08;;;;;;;11.40;10.00;;;;;;;20.49;72.21;100346.78;5117705;27;20466;-71
2021/09/27 00:13:38;;;;;;;10.83;9.83;;;;;;;20.48;72.23;100345.13;5122697;28;20423;-71
2021/09/27 00:16:06;;;;;;;11.13;10.00;;;;;;;20.49;72.59;100340.53;5110193;28;20490;-71
2021/09/27 00:18:33;;;;;;;12.67;11.33;;;;;;;20.26;72.00;100346.31;5119463;28;20573;-71
2021/09/27 00:21:03;;;;;;;15.37;12.20;;;;;;;20.23;71.03;100346.69;5104080;28;20483;-71
2021/09/27 00:23:32;;;;;;;14.63;11.37;;;;;;;20.26;71.78;100343.59;5119310;28;20552;-71
2021/09/27 00:25:59;;;;;;;12.83;11.00;;;;;;;20.40;71.34;100341.75;5081700;28;20551;-70
2021/09/27 00:28:26;;;;;;;12.43;11.13;;;;;;;20.34;71.85;100342.56;5115149;28;20466;-70
2021/09/27 00:30:54;;;;;;;11.63;10.40;;;;;;;20.29;71.82;100343.16;5107938;28;20541;-70
2021/09/27 00:33:23;;;;;;;14.20;12.80;;;;;;;20.11;71.83;100344.53;5121020;28;20879;-70
2021/09/27 00:35:50;;;;;;;13.90;12.60;;;;;;;20.15;71.25;100342.25;5110775;28;20534;-70
2021/09/27 00:38:17;;;;;;;13.20;11.90;;;;;;;20.33;71.16;100344.44;5115137;28;20512;-70
2021/09/27 00:40:48;;;;;;;13.80;12.27;;;;;;;20.21;71.33;100348.78;5106537;28;20518;-70
2021/09/27 00:43:16;;;;;;;14.43;11.50;;;;;;;20.21;71.38;100351.50;5106068;28;20434;-70
2021/09/27 00:45:45;;;;;;;13.50;12.10;;;;;;;20.30;70.73;100340.25;5101379;28;20537;-70
2021/09/27 00:48:14;;;;;;;12.77;11.53;;;;;;;20.36;70.79;100343.19;5121690;28;20433;-70
2021/09/27 00:50:43;;;;;;;13.73;12.43;;;;;;;20.45;70.25;100339.25;5107537;28;20478;-70
2021/09/27 00:53:17;;;;;;;13.83;12.30;;;;;;;20.26;70.11;100324.59;5101754;28;20450;-70
2021/09/27 00:55:43;;;;;;;13.87;12.50;;;;;;;20.38;70.29;100333.81;5106212;28;20556;-70
2021/09/27 00:58:10;;;;;;;15.27;13.63;;;;;;;20.38;70.09;100332.97;5122611;28;20501;-70
2021/09/27 01:00:37;;;;;;;12.67;11.27;;;;;;;20.41;70.58;100332.56;5108704;28;20541;-69
2021/09/27 01:03:04;;;;;;;13.43;12.03;;;;;;;20.44;70.15;100335.72;5121501;28;20513;-70
2021/09/27 01:05:34;;;;;;;12.90;11.60;;;;;;;20.42;70.23;100329.66;5107726;28;20502;-70
2021/09/27 01:08:07;;;;;;;14.10;12.63;;;;;;;20.26;70.82;100330.00;5103961;28;20459;-70
2021/09/27 01:11:08;;;;;;;13.73;12.30;;;;;;;20.00;71.29;100317.13;5107783;28;20545;-70
2021/09/27 01:13:56;;;;;;;13.00;11.70;;;;;;;20.21;70.49;100325.19;5038352;28;20596;-71
2021/09/27 01:16:29;;;;;;;13.17;11.83;;;;;;;20.22;70.60;100315.16;5036221;28;20588;-71
2021/09/27 01:19:09;;;;;;;13.43;12.03;;;;;;;20.09;70.96;100321.38;5038409;28;20536;-70
2021/09/27 01:21:49;;;;;;;14.37;11.30;;;;;;;20.26;70.38;100317.25;5030502;28;21129;-71
2021/09/27 01:24:49;;;;;;;13.43;11.80;;;;;;;20.18;70.34;100314.72;5040792;28;20892;-70
2021/09/27 01:27:55;;;;;;;13.13;10.60;;;;;;;20.35;69.92;100311.66;5031159;28;20512;-70
2021/09/27 01:30:49;;;;;;;12.43;11.23;;;;;;;20.30;70.75;100315.81;5040928;28;20517;-71
2021/09/27 01:33:22;;;;;;;12.00;10.40;;;;;;;20.27;70.48;100320.81;5034233;28;20500;-71
2021/09/27 01:35:54;;;;;;;14.10;12.70;;;;;;;20.21;70.47;100322.47;5041241;28;20477;-72
2021/09/27 01:38:27;;;;;;;14.53;13.03;;;;;;;20.21;69.92;100316.22;5042346;28;20554;-71
2021/09/27 01:41:05;;;;;;;16.70;12.70;;;;;;;20.15;70.82;100317.84;5040705;28;20585;-72
2021/09/27 01:43:37;;;;;;;15.87;12.17;;;;;;;20.00;70.92;100319.84;5041513;28;20524;-71
2021/09/27 01:46:13;;;;;;;15.63;13.97;;;;;;;19.92;71.08;100316.25;5040677;28;20557;-72
2021/09/27 01:48:46;;;;;;;15.63;13.60;;;;;;;19.80;71.72;100311.59;5057828;28;20485;-71
2021/09/27 01:51:15;;;;;;;15.53;12.77;;;;;;;19.87;71.46;100321.44;5119933;27;20544;-70
2021/09/27 01:53:45;;;;;;;13.03;11.73;;;;;;;19.85;71.70;100319.97;5116157;28;20538;-70
2021/09/27 01:56:16;;;;;;;14.77;13.37;;;;;;;19.61;72.28;100315.84;5104173;28;20553;-70
2021/09/27 01:58:52;;;;;;;13.97;12.57;;;;;;;19.82;71.72;100323.09;5107320;28;20518;-71
2021/09/27 02:01:24;;;;;;;14.40;13.00;;;;;;;19.73;71.95;100311.53;5114342;28;20512;-70
2021/09/27 02:03:56;;;;;;;16.63;13.30;;;;;;;19.71;72.12;100324.47;5116916;28;20431;-70
2021/09/27 02:06:26;;;;;;;15.07;12.97;;;;;;;19.53;72.46;100319.53;5105793;28;20478;-70
2021/09/27 02:08:57;;;;;;;16.37;14.03;;;;;;;19.70;72.02;100320.06;5124847;28;20472;-70
2021/09/27 02:11:26;;;;;;;14.83;13.33;;;;;;;19.53;72.42;100320.38;5119623;27;20492;-70
2021/09/27 02:14:03;;;;;;;15.40;13.87;;;;;;;19.71;72.22;100321.75;5110978;28;20461;-70
2021/09/27 02:16:34;;;;;;;15.87;13.60;;;;;;;19.78;71.82;100319.94;5104870;28;20488;-70
2021/09/27 02:19:06;;;;;;;16.90;14.37;;;;;;;19.57;72.32;100321.66;5120698;28;20480;-70
2021/09/27 02:21:36;;;;;;;15.87;14.17;;;;;;;19.52;72.26;100318.69;5114793;27;20478;-70
2021/09/27 02:24:07;;;;;;;18.70;14.90;;;;;;;19.46;72.88;100319.50;5121571;28;20501;-70
2021/09/27 02:26:34;;;;;;;17.80;15.80;;;;;;;19.75;71.94;100313.06;5113246;27;20918;-70
2021/09/27 02:29:01;;;;;;;16.90;15.20;;;;;;;19.75;71.74;100314.91;5115892;28;20431;-70
2021/09/27 02:31:34;;;;;;;17.80;15.23;;;;;;;19.57;72.41;100312.69;5123085;27;20585;-70
2021/09/27 02:34:06;;;;;;;16.90;15.13;;;;;;;19.60;72.25;100322.28;5121199;28;20491;-70
2021/09/27 02:36:36;;;;;;;16.53;14.83;;;;;;;19.65;72.11;100312.53;5122167;27;20554;-70
2021/09/27 02:39:06;;;;;;;16.23;14.70;;;;;;;19.59;72.30;100326.03;5114561;28;20480;-70
2021/09/27 02:41:40;;;;;;;16.67;15.00;;;;;;;19.64;72.22;100329.84;5123357;27;20591;-70
2021/09/27 02:44:07;;;;;;;17.80;14.80;;;;;;;19.41;72.69;100327.38;5120908;28;20541;-69
2021/09/27 02:46:41;;;;;;;18.30;16.50;;;;;;;19.48;72.79;100330.16;5106635;28;20546;-70
2021/09/27 02:49:11;;;;;;;18.63;14.90;;;;;;;19.49;72.54;100319.06;5107057;28;20446;-70
2021/09/27 02:51:39;;;;;;;19.27;15.93;;;;;;;19.72;71.89;100323.41;5103363;28;20570;-70
2021/09/27 02:54:06;;;;;;;18.47;16.47;;;;;;;19.60;72.28;100319.56;5104416;28;20473;-69
2021/09/27 02:56:48;;;;;;;16.87;15.17;;;;;;;19.44;72.81;100316.13;5111943;28;20514;-69
2021/09/27 02:59:20;;;;;;;17.33;15.37;;;;;;;19.57;72.30;100326.25;5112525;28;20470;-70
2021/09/27 03:01:51;;;;;;;18.70;16.47;;;;;;;19.46;72.40;100324.91;5104566;28;20479;-70
2021/09/27 03:04:27;;;;;;;17.97;16.17;;;;;;;19.60;72.16;100320.44;5121750;28;20501;-70
2021/09/27 03:07:04;;;;;;;17.23;15.40;;;;;;;19.46;72.79;100316.78;5082794;28;20502;-70
2021/09/27 03:09:41;;;;;;;16.17;14.47;;;;;;;19.63;72.24;100314.59;5083493;28;20516;-70
2021/09/27 03:12:16;;;;;;;18.03;15.03;;;;;;;19.43;72.52;100305.50;5083888;28;20551;-70
2021/09/27 03:15:16;;;;;;;18.50;16.47;;;;;;;19.36;72.53;100298.13;5117974;28;20439;-70
2021/09/27 03:17:49;;;;;;;17.53;15.40;;;;;;;19.53;72.06;100303.28;5059686;28;20469;-70
2021/09/27 03:20:28;;;;;;;17.80;15.70;;;;;;;19.53;72.03;100306.81;5059620;28;21249;-70
2021/09/27 03:23:01;;;;;;;17.53;15.67;;;;;;;19.64;71.67;100310.00;5059725;28;20540;-70
2021/09/27 03:25:39;;;;;;;19.17;17.23;;;;;;;19.24;72.88;100304.31;5059402;28;20524;-70
2021/09/27 03:28:13;;;;;;;18.57;16.53;;;;;;;19.62;71.93;100303.97;5059633;28;20476;-70
2021/09/27 03:30:45;;;;;;;19.50;16.40;;;;;;;19.45;72.38;100317.81;5058876;28;20495;-70
2021/09/27 03:33:20;;;;;;;18.27;16.20;;;;;;;19.60;71.55;100306.00;5059594;28;20528;-70
2021/09/27 03:36:03;;;;;;;17.23;15.40;;;;;;;19.37;72.37;100310.66;5059114;28;20484;-70
2021/09/27 03:38:34;;;;;;;18.30;16.17;;;;;;;19.36;72.51;100308.16;5060037;28;20457;-69
2021/09/27 03:41:08;;;;;;;18.50;16.60;;;;;;;19.36;72.35;100305.44;5058353;28;20537;-69
2021/09/27 03:43:43;;;;;;;18.27;15.70;;;;;;;19.33;72.64;100308.53;5060451;28;20440;-69
2021/09/27 03:46:17;;;;;;;17.73;15.87;;;;;;;19.43;72.10;100310.91;5057089;28;20936;-69
2021/09/27 03:48:49;;;;;;;16.60;14.90;;;;;;;19.41;71.90;100300.25;5060043;28;20555;-70
2021/09/27 03:51:20;;;;;;;16.07;14.37;;;;;;;19.28;72.56;100292.03;5059123;28;20563;-70
2021/09/27 03:53:49;;;;;;;17.13;14.53;;;;;;;19.27;72.16;100290.34;5087803;28;20478;-69
2021/09/27 03:56:21;;;;;;;19.93;16.07;;;;;;;19.21;72.12;100294.69;5111834;27;20511;-69
2021/09/27 03:58:52;;;;;;;16.40;14.47;;;;;;;19.26;71.82;100289.50;5108028;28;20489;-70
2021/09/27 04:01:21;;;;;;;17.43;14.73;;;;;;;19.25;71.81;100285.13;5098877;28;20553;-70
2021/09/27 04:04:04;;;;;;;17.47;15.60;;;;;;;18.89;72.62;100285.25;5122782;28;20470;-69
2021/09/27 04:06:55;;;;;;;15.80;14.20;;;;;;;19.08;71.98;100279.16;5118625;27;20562;-69
2021/09/27 04:09:32;;;;;;;16.17;14.50;;;;;;;18.69;73.11;100282.31;5122779;27;20461;-69
2021/09/27 04:12:09;;;;;;;18.13;14.70;;;;;;;18.78;72.76;100282.00;5109123;28;20910;-69
2021/09/27 04:14:42;;;;;;;20.20;16.07;;;;;;;18.80;72.75;100270.94;5123242;28;20458;-69
2021/09/27 04:17:14;;;;;;;16.47;14.63;;;;;;;18.68;73.00;100278.75;5105440;28;20582;-69
2021/09/27 04:19:48;;;;;;;17.10;13.70;;;;;;;18.72;72.74;100271.09;5120949;28;20545;-70
2021/09/27 04:22:23;;;;;;;16.03;14.33;;;;;;;18.73;72.77;100278.16;5111890;28;21029;-70
2021/09/27 04:24:59;;;;;;;17.70;15.20;;;;;;;18.62;73.13;100279.53;5117776;28;20560;-69
2021/09/27 04:27:40;;;;;;;15.27;13.67;;;;;;;18.63;73.08;100283.91;5118063;27;20481;-70
2021/09/27 04:30:16;;;;;;;19.03;14.80;;;;;;;18.57;72.92;100281.97;5100887;28;20522;-70
2021/09/27 04:32:56;;;;;;;19.70;14.30;;;;;;;18.59;72.90;100282.59;5113388;28;20502;-69
2021/09/27 04:35:28;;;;;;;15.67;14.07;;;;;;;18.62;72.85;100279.53;5080597;28;20439;-69
2021/09/27 04:37:56;;;;;;;18.03;14.17;;;;;;;18.50;73.25;100276.47;5112656;28;20473;-69
2021/09/27 04:40:33;;;;;;;17.33;15.07;;;;;;;18.22;74.18;100279.91;5121474;27;20457;-69
2021/09/27 04:43:12;;;;;;;18.70;16.03;;;;;;;18.48;73.36;100269.59;5109777;28;21543;-73
2021/09/27 04:45:54;;;;;;;20.00;16.53;;;;;;;18.37;73.72;100263.66;5120543;27;20568;-67
2021/09/27 04:48:45;;;;;;;19.57;17.07;;;;;;;18.09;74.65;100265.38;5081740;28;20432;-67
2021/09/27 04:51:21;;;;;;;17.70;15.50;;;;;;;18.39;73.77;100261.56;5084443;28;20471;-66
2021/09/27 04:54:17;;;;;;;16.93;15.13;;;;;;;18.33;73.61;100259.66;5112396;28;20443;-66
2021/09/27 04:56:50;;;;;;;17.90;15.87;;;;;;;18.29;73.88;100262.94;5110799;27;20488;-66
2021/09/27 04:59:39;;;;;;;19.20;15.60;;;;;;;18.12;74.83;100260.44;5121661;28;20442;-69
2021/09/27 05:02:25;;;;;;;21.40;17.40;;;;;;;18.18;74.76;100256.16;5116753;27;20565;-66
2021/09/27 05:04:54;;;;;;;19.03;17.13;;;;;;;18.19;74.43;100266.78;5090672;28;20490;-66
2021/09/27 05:07:59;;;;;;;20.17;16.07;;;;;;;18.20;74.35;100263.03;5110575;28;20715;-66
2021/09/27 05:10:47;;;;;;;20.43;17.20;;;;;;;18.01;75.20;100255.53;5098013;28;20553;-66
2021/09/27 05:13:41;;;;;;;17.67;14.07;;;;;;;17.92;75.13;100262.06;5081599;28;20515;-66
2021/09/27 05:16:17;;;;;;;19.80;15.83;;;;;;;18.01;74.98;100256.34;5077219;28;20502;-66
2021/09/27 05:19:12;;;;;;;18.83;16.83;;;;;;;18.17;74.34;100260.69;5083696;28;20512;-66
2021/09/27 05:22:02;;;;;;;18.17;15.57;;;;;;;18.23;74.20;100257.25;5078001;28;20480;-66
2021/09/27 05:24:39;;;;;;;21.23;18.20;;;;;;;17.98;74.76;100254.00;5082181;28;20475;-66
2021/09/27 05:27:24;;;;;;;22.53;18.47;;;;;;;17.87;75.50;100260.75;5098496;28;20485;-66
2021/09/27 05:30:01;;;;;;;19.47;17.37;;;;;;;17.82;75.93;100265.03;5085702;28;20479;-66
2021/09/27 05:32:35;;;;;;;19.00;16.43;;;;;;;18.02;75.07;100259.91;5084321;28;20474;-66
2021/09/27 05:35:14;;;;;;;19.57;16.20;;;;;;;18.21;74.36;100258.44;5069600;28;20469;-66
2021/09/27 05:37:49;;;;;;;22.60;16.20;;;;;;;18.22;73.83;100260.13;5096551;28;20562;-66
2021/09/27 05:40:23;;;;;;;20.70;16.10;;;;;;;18.02;74.74;100247.22;5097745;28;20542;-66
2021/09/27 05:43:03;;;;;;;17.53;15.73;;;;;;;18.23;73.82;100254.53;5086142;28;20452;-66
2021/09/27 05:45:39;;;;;;;17.50;15.43;;;;;;;18.09;74.24;100254.56;5098542;28;20477;-66
2021/09/27 05:48:09;;;;;;;21.10;17.40;;;;;;;18.08;74.33;100255.59;5101568;28;20910;-66
2021/09/27 05:50:39;;;;;;;17.90;15.60;;;;;;;18.06;74.41;100261.19;5106514;28;20463;-66
2021/09/27 05:53:15;;;;;;;17.83;15.97;;;;;;;18.15;73.63;100257.34;5101207;28;20450;-65
2021/09/27 05:55:44;;;;;;;17.07;15.23;;;;;;;18.67;72.34;100249.16;5100373;28;20904;-65
2021/09/27 05:58:18;;;;;;;16.87;15.07;;;;;;;19.40;69.40;100247.06;5101315;28;20435;-65
2021/09/27 06:00:49;;;;;;;18.00;15.50;;;;;;;20.17;66.44;100253.31;5106431;27;20533;-65
2021/09/27 06:03:45;;;;;;;15.63;13.80;;;;;;;20.51;64.87;100252.38;5119338;28;20560;-66
2021/09/27 06:06:22;;;;;;;13.23;11.87;;;;;;;21.45;61.70;100252.41;5098667;28;20490;-66
2021/09/27 06:08:54;;;;;;;13.00;11.70;;;;;;;21.19;62.24;100261.44;5101592;28;20427;-66
2021/09/27 06:11:28;;;;;;;13.67;12.13;;;;;;;20.38;64.81;100255.06;5114526;27;20560;-65
2021/09/27 06:13:57;;;;;;;14.33;12.80;;;;;;;19.65;67.00;100247.44;5125414;28;20473;-66
2021/09/27 06:16:34;;;;;;;14.97;12.93;;;;;;;19.08;69.14;100249.34;5123984;27;20785;-65
2021/09/27 06:19:06;;;;;;;14.47;12.90;;;;;;;19.33;69.36;100243.47;5125788;28;20434;-66
2021/09/27 06:21:42;;;;;;;15.30;12.90;;;;;;;20.46;64.93;100249.44;5122294;27;20585;-66
2021/09/27 06:24:18;;;;;;;13.97;12.57;;;;;;;20.87;63.61;100250.38;5125581;28;20505;-66
2021/09/27 06:26:51;;;;;;;13.67;12.27;;;;;;;21.47;61.80;100257.69;5124398;27;20545;-65
2021/09/27 06:29:23;;;;;;;17.13;11.47;;;;;;;21.60;60.64;100254.94;5124784;28;20437;-66
2021/09/27 06:31:57;;;;;;;11.73;10.57;;;;;;;23.07;56.76;100249.59;5122163;27;20553;-66
2021/09/27 06:34:28;;;;;;;11.63;10.43;;;;;;;22.84;56.92;100258.31;5125167;28;20498;-66
2021/09/27 06:36:57;;;;;;;10.80;9.70;;;;;;;22.52;57.29;100255.59;5124230;27;20470;-66
2021/09/27 06:39:26;;;;;;;11.27;9.50;;;;;;;23.46;54.70;100257.59;5124578;28;20462;-66
2021/09/27 06:41:53;;;;;;;15.73;10.10;;;;;;;24.40;51.62;100249.97;5112768;27;20569;-66
2021/09/27 06:44:24;;;;;;;12.43;9.50;;;;;;;24.28;51.94;100248.28;5104466;28;20470;-66
2021/09/27 06:46:51;;;;;;;9.90;8.90;;;;;;;24.74;50.94;100255.00;5103261;28;20478;-66
2021/09/27 06:49:18;;;;;;;12.43;9.63;;;;;;;25.55;48.72;100249.81;5104144;28;20506;-66
2021/09/27 06:51:44;;;;;;;9.63;7.80;;;;;;;23.85;52.06;100244.59;5111308;28;20549;-66
2021/09/27 06:54:11;;;;;;;10.87;9.07;;;;;;;23.76;52.31;100248.66;5124816;28;20454;-66
2021/09/27 06:56:39;;;;;;;9.30;7.27;;;;;;;23.69;52.57;100246.84;5123615;27;20497;-65
2021/09/27 06:59:06;;;;;;;9.40;8.50;;;;;;;22.98;54.27;100252.75;5113465;28;20508;-66
2021/09/27 07:01:35;;;;;;;12.10;8.77;;;;;;;22.83;55.40;100250.34;5102078;28;20522;-66
2021/09/27 07:04:02;;;;;;;14.47;8.20;;;;;;;23.20;53.90;100254.06;5104073;28;20477;-66
2021/09/27 07:06:29;;;;;;;11.53;8.27;;;;;;;22.77;55.39;100252.09;5100877;28;20542;-66
2021/09/27 07:08:55;;;;;;;9.73;7.97;;;;;;;24.13;52.46;100243.19;5109692;28;20457;-66
2021/09/27 07:11:23;;;;;;;11.83;7.97;;;;;;;22.75;55.21;100251.47;5121758;27;20462;-66
2021/09/27 07:13:50;;;;;;;9.20;8.30;;;;;;;22.42;56.05;100244.34;5122111;27;20959;-66
2021/09/27 07:16:16;;;;;;;9.97;8.30;;;;;;;22.44;56.88;100239.50;5120826;27;20561;-66
2021/09/27 07:18:44;;;;;;;9.63;8.50;;;;;;;22.93;55.32;100237.06;5123826;28;20437;-66
2021/09/27 07:21:12;;;;;;;11.50;8.50;;;;;;;22.69;55.85;100239.56;5122204;27;20501;-66
2021/09/27 07:23:40;;;;;;;10.03;8.63;;;;;;;23.45;53.35;100243.13;5122004;28;20474;-66
2021/09/27 07:26:07;;;;;;;8.63;7.80;;;;;;;23.65;52.32;100234.72;5102511;28;20672;-66
2021/09/27 07:28:33;;;;;;;8.97;8.10;;;;;;;25.31;48.57;100240.78;5102467;28;20458;-66
2021/09/27 07:31:00;;;;;;;8.90;7.00;;;;;;;26.35;46.32;100250.13;5100982;28;20499;-66
2021/09/27 07:33:29;;;;;;;10.23;8.23;;;;;;;25.44;47.55;100243.28;5114858;28;20493;-66
2021/09/27 07:35:58;;;;;;;9.27;7.70;;;;;;;25.81;46.69;100242.16;5122812;27;20541;-66
2021/09/27 07:38:24;;;;;;;10.43;8.13;;;;;;;25.39;48.06;100242.34;5121895;28;20490;-66
2021/09/27 07:40:51;;;;;;;8.77;7.03;;;;;;;25.10;48.91;100242.19;5121967;27;20466;-66
2021/09/27 07:43:18;;;;;;;9.50;8.60;;;;;;;25.37;48.06;100248.06;5121120;28;20533;-66
2021/09/27 07:45:46;;;;;;;8.43;7.60;;;;;;;24.43;49.66;100244.03;5120712;27;21026;-66
2021/09/27 07:48:26;;;;;;;8.57;7.70;;;;;;;25.61;47.21;100239.84;5122513;28;20427;-66
2021/09/27 07:50:54;;;;;;;9.03;7.10;;;;;;;25.81;47.23;100237.50;5121937;27;20474;-66
2021/09/27 07:53:24;;;;;;;10.20;7.20;;;;;;;27.04;44.12;100245.31;5120111;28;20507;-66
2021/09/27 07:55:51;;;;;;;7.80;7.10;;;;;;;25.83;46.15;100235.38;5122152;27;20470;-66
2021/09/27 07:58:18;;;;;;;8.60;7.80;;;;;;;25.32;48.04;100237.00;5122515;28;20465;-66
2021/09/27 08:00:46;;;;;;;11.40;7.50;;;;;;;25.53;46.86;100230.91;5120777;27;20549;-66
2021/09/27 08:03:13;;;;;;;8.13;7.33;;;;;;;24.92;48.41;100232.19;5122267;28;20533;-66
2021/09/27 08:05:40;;;;;;;7.00;6.30;;;;;;;25.66;47.42;100237.22;5102134;28;20494;-66
2021/09/27 08:08:07;;;;;;;7.50;6.80;;;;;;;25.78;47.13;100234.44;5100708;28;20519;-66
2021/09/27 08:10:36;;;;;;;9.40;6.60;;;;;;;27.07;43.99;100229.47;5101014;28;20479;-66
2021/09/27 08:13:03;;;;;;;11.23;7.00;;;;;;;25.42;47.47;100231.75;5099333;28;20984;-67
2021/09/27 08:15:32;;;;;;;7.33;6.63;;;;;;;25.56;47.55;100215.91;5096332;28;20481;-66
2021/09/27 08:17:59;;;;;;;10.40;6.97;;;;;;;26.17;46.05;100221.84;5100805;28;20458;-66
2021/09/27 08:20:28;;;;;;;6.60;6.00;;;;;;;25.43;47.08;100224.38;5100196;28;20471;-66
2021/09/27 08:22:55;;;;;;;6.97;6.33;;;;;;;26.65;44.77;100220.56;5099483;28;20461;-66
2021/09/27 08:25:23;;;;;;;7.33;6.63;;;;;;;27.49;43.07;100218.03;5100148;28;20439;-66
2021/09/27 08:27:52;;;;;;;6.67;6.07;;;;;;;28.09;42.10;100225.41;5099600;28;20985;-66
2021/09/27 08:30:22;;;;;;;7.43;6.40;;;;;;;27.01;42.54;100234.88;5099116;28;20454;-66
2021/09/27 08:32:49;;;;;;;7.00;6.30;;;;;;;26.52;45.19;100225.50;5099547;28;20451;-67
2021/09/27 08:35:16;;;;;;;7.07;6.43;;;;;;;26.98;43.87;100229.06;5100417;28;20529;-66
2021/09/27 08:37:43;;;;;;;7.90;5.87;;;;;;;27.12;44.08;100246.00;5099003;28;20426;-66
2021/09/27 08:40:13;;;;;;;7.00;5.90;;;;;;;27.16;43.06;100236.19;5099589;28;20510;-66
2021/09/27 08:42:41;;;;;;;7.30;5.90;;;;;;;26.58;44.29;100238.19;5099590;28;20476;-66
2021/09/27 08:45:15;;;;;;;7.40;6.53;;;;;;;25.27;47.24;100237.69;5106429;27;20446;-66
2021/09/27 08:47:55;;;;;;;6.97;6.27;;;;;;;25.07;48.26;100237.19;5105697;28;20483;-66
2021/09/27 08:50:28;;;;;;;7.13;6.43;;;;;;;26.68;45.16;100244.75;5099652;28;20478;-66
2021/09/27 08:52:56;;;;;;;7.43;5.97;;;;;;;28.03;41.87;100239.34;5098567;28;20528;-67
2021/09/27 08:55:23;;;;;;;9.17;6.07;;;;;;;26.58;43.99;100233.56;5108928;27;20443;-66
2021/09/27 08:57:54;;;;;;;6.20;5.50;;;;;;;26.31;45.35;100236.06;5118854;28;20461;-66
2021/09/27 09:00:31;;;;;;;10.73;6.23;;;;;;;27.19;43.16;100233.75;5100045;27;20542;-65
2021/09/27 09:03:02;;;;;;;6.70;5.30;;;;;;;26.26;44.78;100234.06;5079046;28;20853;-65
2021/09/27 09:05:33;;;;;;;7.20;6.43;;;;;;;27.02;43.51;100239.25;5090095;27;20467;-65
2021/09/27 09:08:05;;;;;;;7.60;6.37;;;;;;;26.72;44.28;100244.22;5098089;28;20467;-66
2021/09/27 09:10:42;;;;;;;8.03;6.07;;;;;;;28.42;41.71;100242.78;5098897;27;21022;-65
2021/09/27 09:13:11;;;;;;;8.80;6.93;;;;;;;26.15;44.87;100234.13;5097909;28;20538;-65
2021/09/27 09:15:41;;;;;;;7.73;6.17;;;;;;;26.77;44.15;100230.59;5098234;27;20490;-65
2021/09/27 09:18:13;;;;;;;6.50;5.90;;;;;;;26.95;44.24;100226.81;5098989;28;20522;-66
2021/09/27 09:20:48;;;;;;;8.67;6.23;;;;;;;27.61;42.59;100229.72;5098107;28;20590;-65
2021/09/27 09:23:23;;;;;;;7.63;6.23;;;;;;;27.71;42.34;100227.09;5099016;28;20446;-65
2021/09/27 09:25:50;;;;;;;8.13;7.30;;;;;;;24.87;48.31;100234.81;5098570;28;20494;-67
2021/09/27 09:28:17;;;;;;;9.63;7.10;;;;;;;25.65;46.48;100225.41;5097178;28;20435;-67
2021/09/27 09:30:51;;;;;;;7.53;6.67;;;;;;;24.04;51.09;100231.75;5098574;28;20546;-66
2021/09/27 09:33:43;;;;;;;7.43;6.70;;;;;;;23.52;52.88;100223.13;5099069;28;20447;-66
2021/09/27 09:36:13;;;;;;;10.07;7.70;;;;;;;24.43;51.14;100227.66;5097383;27;20509;-66
2021/09/27 09:38:41;;;;;;;7.97;7.17;;;;;;;26.05;46.81;100221.06;5099402;28;20463;-66
2021/09/27 09:41:09;;;;;;;8.13;7.40;;;;;;;25.46;47.66;100223.91;5098032;27;20471;-66
2021/09/27 09:43:37;;;;;;;9.37;7.30;;;;;;;24.27;50.00;100222.84;5097952;28;20503;-66
2021/09/27 09:46:10;;;;;;;8.40;7.60;;;;;;;24.93;48.99;100209.22;5101501;28;20851;-66
2021/09/27 09:48:39;;;;;;;7.33;6.70;;;;;;;26.88;45.35;100221.47;5103259;28;20419;-66
2021/09/27 09:51:25;;;;;;;8.33;7.23;;;;;;;26.92;44.22;100211.66;5101542;27;20474;-66
2021/09/27 09:54:11;;;;;;;10.80;6.40;;;;;;;25.67;46.72;100200.53;5102288;28;21183;-66
2021/09/27 09:56:40;;;;;;;7.43;6.73;;;;;;;25.50;47.24;100198.56;5102548;28;20861;-66
2021/09/27 09:59:24;;;;;;;8.20;6.67;;;;;;;26.33;45.96;100198.28;5101784;28;20495;-66
2021/09/27 10:01:54;;;;;;;7.43;6.60;;;;;;;25.23;47.09;100198.19;5101783;27;20504;-66
2021/09/27 10:04:24;;;;;;;7.03;6.43;;;;;;;26.60;45.09;100198.50;5082124;28;20428;-66
2021/09/27 10:06:58;;;;;;;6.67;6.07;;;;;;;25.43;48.13;100199.75;5080951;28;20483;-66
2021/09/27 10:09:29;;;;;;;10.53;6.47;;;;;;;26.29;45.70;100197.13;5095873;28;20472;-66
2021/09/27 10:11:58;;;;;;;7.17;6.07;;;;;;;26.35;45.40;100198.88;5101651;27;20562;-66
2021/09/27 10:14:33;;;;;;;7.33;6.63;;;;;;;25.23;46.87;100192.72;5101754;28;20481;-66
2021/09/27 10:17:30;;;;;;;6.43;5.83;;;;;;;26.27;46.01;100191.88;5101778;27;20494;-66
2021/09/27 10:19:59;;;;;;;7.80;7.10;;;;;;;24.54;49.81;100195.16;5102107;28;20423;-66
2021/09/27 10:22:29;;;;;;;7.40;6.60;;;;;;;24.25;49.44;100193.03;5101607;27;20470;-67
2021/09/27 10:24:58;;;;;;;7.57;6.90;;;;;;;25.27;48.02;100188.44;5102738;28;20466;-66
2021/09/27 10:27:28;;;;;;;8.50;6.40;;;;;;;26.13;45.89;100190.53;5100805;28;20578;-66
2021/09/27 10:29:57;;;;;;;7.70;6.60;;;;;;;26.35;45.32;100192.56;5102118;28;20431;-66
2021/09/27 10:32:34;;;;;;;12.20;6.97;;;;;;;24.95;48.28;100185.22;5100705;28;20482;-66
2021/09/27 10:35:07;;;;;;;8.67;7.13;;;;;;;24.59;49.57;100196.09;5101476;28;20431;-66
2021/09/27 10:37:33;;;;;;;7.83;6.57;;;;;;;23.64;51.37;100192.13;5101493;28;20475;-66
2021/09/27 10:40:00;;;;;;;7.60;6.90;;;;;;;23.96;51.58;100194.69;5102208;28;20462;-66
2021/09/27 10:42:33;;;;;;;9.40;6.90;;;;;;;23.62;52.89;100196.97;5099086;27;20597;-65
2021/09/27 10:45:01;;;;;;;8.20;7.40;;;;;;;23.51;51.88;100189.53;5102295;28;20466;-66
2021/09/27 10:47:31;;;;;;;7.27;6.57;;;;;;;24.25;49.64;100192.19;5100240;27;20471;-65
2021/09/27 10:50:06;;;;;;;6.90;6.30;;;;;;;24.59;48.60;100196.09;5100603;28;20531;-66
2021/09/27 10:52:43;;;;;;;7.60;6.90;;;;;;;24.30;49.06;100186.03;5087733;28;20490;-66
2021/09/27 10:55:15;;;;;;;7.80;7.00;;;;;;;24.13;50.96;100186.69;5101976;28;20519;-65
2021/09/27 10:57:49;;;;;;;10.40;7.83;;;;;;;23.94;50.89;100185.91;5120892;28;20422;-66
2021/09/27 11:00:19;;;;;;;9.00;7.47;;;;;;;23.80;52.02;100189.81;5121353;27;20863;-66
2021/09/27 11:02:51;;;;;;;8.90;7.30;;;;;;;24.77;49.36;100177.94;5112296;28;20853;-65
2021/09/27 11:05:33;;;;;;;8.23;7.27;;;;;;;24.95;49.32;100174.28;5099745;28;20455;-65
2021/09/27 11:08:07;;;;;;;7.73;6.83;;;;;;;25.13;47.50;100178.78;5099890;28;20566;-66
2021/09/27 11:10:40;;;;;;;7.57;6.37;;;;;;;26.06;45.49;100178.91;5101958;28;20505;-66
2021/09/27 11:13:07;;;;;;;7.60;6.90;;;;;;;27.03;45.18;100177.81;5109338;28;21037;-66
2021/09/27 11:15:36;;;;;;;10.97;6.10;;;;;;;26.31;44.53;100167.56;5100810;28;20481;-66
2021/09/27 11:18:07;;;;;;;8.73;6.80;;;;;;;26.30;44.48;100172.22;5101394;28;20519;-66
2021/09/27 11:20:59;;;;;;;7.87;6.37;;;;;;;25.58;46.35;100178.16;5099853;28;20463;-66
2021/09/27 11:23:29;;;;;;;7.00;6.27;;;;;;;26.07;46.24;100178.63;5101263;28;20913;-66
2021/09/27 11:26:29;;;;;;;7.00;6.40;;;;;;;25.14;47.49;100170.34;5100940;28;20483;-66
2021/09/27 11:29:04;;;;;;;9.13;7.10;;;;;;;25.08;48.10;100178.69;5100977;28;20426;-66
2021/09/27 11:31:37;;;;;;;8.57;7.67;;;;;;;24.31;49.31;100177.59;5113097;27;20501;-66
2021/09/27 11:34:31;;;;;;;8.60;6.83;;;;;;;24.99;48.51;100172.75;5120588;28;20698;-66
2021/09/27 11:37:20;;;;;;;6.83;6.13;;;;;;;25.48;46.84;100167.81;5120999;27;20477;-67
2021/09/27 11:39:49;;;;;;;7.70;6.90;;;;;;;24.27;49.09;100170.94;5107641;28;20670;-66
2021/09/27 11:42:32;;;;;;;6.90;6.30;;;;;;;24.97;47.89;100170.22;5098955;28;21049;-66
2021/09/27 11:45:17;;;;;;;8.13;7.43;;;;;;;24.93;49.29;100160.00;5100623;28;21172;-65